Hauptseite
METAR-TAF:

METAR-TAF

Flughäfen :

Schenectady County Airport

Schenectady, New York, Vereinigte Staaten

Breite: 42-51N, Länge: 073-56W, Höhe: 115 m

Beobachtung

Neuester Wetterbericht von vor 45 Minuten, um 00:59 UTC
Wind 10 kt aus West, Böen bis zu 17 kt
Temperatur -1°C
Luftfeuchtigkeit 43%
Luftdruck 1026 hPa
Sichtweite: 16.1 km
Aufgelockert bewölkt in der Höhe von 6500 ft

METAR: KSCH 120059Z 28010G17KT 10SM SCT065 M01/M12 A3029

Zeit: 20:44 (01:44 UTC)


TAF: fehlend

Wetterbeobachtungen und Prognosen von mehr als 4000 Flughäfen (METAR und TAF Bericht).

Die verfügbaren Stationen werden durch gelbe und rote Markierungen auf der Karte dargestellt.

Führen Sie die Maus auf sie, um den Namen der Station zu sehen.

Darauf klicken, um die Beobachtung von Wetterbeobachtungen und Prognosen zu sehen.

Um die Karte zu ändern : klicken Sie auf den grünen Tasten mit einem schwarzen Kreuz Zum Vergrößern, auf den grünen Button mit einem Gedankenstrich zu verkleinern, oder auf die grünen Pfeile für benachbarte Karten.


METAR-TAF: